Terminal Aerodrome Forecast
Issued by NWS

Home | Current Version | Previous Version | Text Only | Print | Product List | Glossary On
Versions: 1 2 3 4 5 6 7 8 9 10 11 12 13 14
000
FTUS43 KTOP 240500
TAFMHK
TAF
KMHK 240539Z 2406/2506 23004KT P6SM SKC
     FM241500 27010KT P6SM SCT250
     FM250000 02003KT P6SM SCT025 BKN040=

USA.gov is the U.S. government's official web portal to all federal, state and local government web resources and services.